DTMB/MIR METAR and TAF weather

Enter ICAO airport designator
Station Type Date Time Source
DTMB METAR 2019/04/25 01:30 UTC NOAA

DTMB 250130Z 35005KT 8000 NSC 17/16 Q1015


Station Type Date Time Source
DTMB Decoded METAR 2019/04/25 01:30 UTC NOAA

Habib Bourguiba , Tunisia (DTMB) 35-46N 010-45E
Apr 24, 2019 - 09:30 PM EDT / 2019.04.25 0130 UTC
Wind: from the N (350 degrees) at 6 MPH (5 KT):0
Visibility: 4 mile(s):0
Temperature: 62 F (17 C)
Dew Point: 60 F (16 C)
Relative Humidity: 93%
Pressure (altimeter): 29.97 in. Hg (1015 hPa)
ob: DTMB 250130Z 35005KT 8000 NSC 17/16 Q1015
cycle: 1

Station Type Date Time Source
DTMB TAF 2019/04/24 18:03 UTC NOAA

TAF TAF DTMB 241700Z 2418/2518 02012KT 9999 FEW026
BECMG 2419/2421 04005KT PROB40
TEMPO 2503/2507 3000 BR
BECMG 2507/2509 04012KT 9999 SCT020

Example: see airport list